Wetterdaten: Woche 02.07.12 - 08.07.12 (KW27)
Datum Zeit Temperatur Luftfeuchte Luftdruck Niederschlag Windrichtung Sonnenschein Solar Wind
02.07.2012 00:00 13,9 C 98 % 1017,9 hPa 0,0 l/m N 0,00 h 0 W/m 0,7 km/h (0 Bft)
02.07.2012 01:00 13,4 C 99 % 1017,4 hPa 0,0 l/m NW 0,00 h 0 W/m 4,8 km/h (1 Bft)
02.07.2012 02:00 13,7 C 99 % 1017,0 hPa 0,0 l/m N 0,00 h 0 W/m 9,4 km/h (2 Bft)
02.07.2012 03:00 14,2 C 99 % 1016,7 hPa 0,0 l/m N 0,00 h 0 W/m 9,7 km/h (2 Bft)
02.07.2012 04:00 14,4 C 99 % 1016,5 hPa 0,0 l/m N-NO 0,00 h 0 W/m 11,6 km/h (2 Bft)
02.07.2012 05:00 14,6 C 99 % 1016,7 hPa 0,4 l/m N-NO 0,00 h 10 W/m 12,1 km/h (2 Bft)
02.07.2012 06:00 14,8 C 98 % 1016,7 hPa 0,0 l/m NO 0,00 h 23 W/m 12,1 km/h (2 Bft)
02.07.2012 07:00 15,1 C 97 % 1016,1 hPa 0,0 l/m O-NO 0,25 h 124 W/m 14,2 km/h (3 Bft)
02.07.2012 08:00 15,8 C 94 % 1015,8 hPa 0,0 l/m O-NO 0,00 h 86 W/m 12,6 km/h (3 Bft)
02.07.2012 09:00 15,7 C 95 % 1016,8 hPa 0,6 l/m NO 0,00 h 67 W/m 7,0 km/h (2 Bft)
02.07.2012 10:00 16,0 C 96 % 1016,3 hPa 0,2 l/m O-NO 0,00 h 114 W/m 10,1 km/h (2 Bft)
02.07.2012 11:00 16,3 C 96 % 1016,2 hPa 0,4 l/m NO 0,00 h 74 W/m 6,3 km/h (2 Bft)
02.07.2012 12:00 17,3 C 94 % 1015,1 hPa 0,2 l/m NO 0,25 h 369 W/m 14,2 km/h (3 Bft)
02.07.2012 13:00 18,6 C 86 % 1014,3 hPa 0,0 l/m O-SO 0,00 h 223 W/m 17,8 km/h (3 Bft)
02.07.2012 14:00 18,3 C 85 % 1014,4 hPa 0,0 l/m O-SO 0,00 h 78 W/m 11,4 km/h (2 Bft)
02.07.2012 15:00 18,3 C 87 % 1014,6 hPa 0,0 l/m O-SO 0,00 h 141 W/m 5,1 km/h (1 Bft)
02.07.2012 16:00 18,7 C 85 % 1014,2 hPa 0,0 l/m NO 0,00 h 190 W/m 9,3 km/h (2 Bft)
02.07.2012 17:00 18,3 C 87 % 1014,4 hPa 0,0 l/m NO 0,00 h 69 W/m 6,7 km/h (2 Bft)
02.07.2012 18:00 18,4 C 89 % 1014,4 hPa 0,2 l/m NO 0,00 h 110 W/m 7,5 km/h (2 Bft)
02.07.2012 19:00 18,0 C 91 % 1014,6 hPa 0,0 l/m NO 0,00 h 28 W/m 4,4 km/h (1 Bft)
02.07.2012 20:00 17,6 C 95 % 1014,9 hPa 1,6 l/m NO 0,00 h 8 W/m 3,7 km/h (1 Bft)
02.07.2012 21:00 17,1 C 98 % 1015,6 hPa 2,2 l/m NO 0,00 h 0 W/m 2,3 km/h (1 Bft)
02.07.2012 22:00 16,6 C 98 % 1015,5 hPa 0,2 l/m NO 0,00 h 0 W/m 3,6 km/h (1 Bft)
02.07.2012 23:00 16,5 C 99 % 1016,0 hPa 0,0 l/m N 0,00 h 0 W/m 0,3 km/h (0 Bft)
03.07.2012 00:00 16,5 C 99 % 1016,3 hPa 0,0 l/m N 0,00 h 0 W/m 0,3 km/h (0 Bft)
03.07.2012 01:00 16,3 C 99 % 1015,8 hPa 0,0 l/m NO 0,00 h 0 W/m 3,2 km/h (1 Bft)
03.07.2012 02:00 15,7 C 99 % 1015,6 hPa 0,0 l/m N 0,00 h 0 W/m 2,1 km/h (1 Bft)
03.07.2012 03:00 15,5 C 99 % 1015,6 hPa 0,2 l/m N 0,00 h 0 W/m 0,9 km/h (0 Bft)
03.07.2012 04:00 15,5 C 99 % 1015,3 hPa 0,0 l/m NO 0,00 h 0 W/m 2,8 km/h (1 Bft)
03.07.2012 05:00 15,4 C 99 % 1015,3 hPa 0,0 l/m NO 0,00 h 7 W/m 4,7 km/h (1 Bft)
03.07.2012 06:00 15,3 C 99 % 1015,5 hPa 0,0 l/m NO 0,00 h 48 W/m 6,1 km/h (2 Bft)
03.07.2012 07:00 15,7 C 97 % 1015,6 hPa 0,0 l/m NO 0,00 h 76 W/m 7,6 km/h (2 Bft)
03.07.2012 08:00 16,2 C 95 % 1015,6 hPa 0,0 l/m NO 0,00 h 129 W/m 10,1 km/h (2 Bft)
03.07.2012 09:00 16,9 C 93 % 1015,7 hPa 0,0 l/m NO 0,00 h 107 W/m 8,9 km/h (2 Bft)
03.07.2012 10:00 16,8 C 93 % 1016,0 hPa 0,0 l/m NO 0,00 h 41 W/m 6,3 km/h (2 Bft)
03.07.2012 11:00 17,1 C 93 % 1016,0 hPa 0,0 l/m NO 0,00 h 78 W/m 6,0 km/h (2 Bft)
03.07.2012 12:00 17,5 C 91 % 1015,8 hPa 0,0 l/m O-NO 0,00 h 61 W/m 10,4 km/h (2 Bft)
03.07.2012 13:00 17,2 C 95 % 1015,6 hPa 0,0 l/m O 0,00 h 49 W/m 6,7 km/h (2 Bft)
03.07.2012 14:00 17,1 C 95 % 1015,5 hPa 0,0 l/m NO 0,00 h 64 W/m 7,8 km/h (2 Bft)
03.07.2012 15:00 17,2 C 95 % 1015,5 hPa 0,0 l/m NO 0,00 h 49 W/m 5,2 km/h (1 Bft)
03.07.2012 16:00 17,6 C 94 % 1015,3 hPa 0,0 l/m N 0,00 h 138 W/m 2,8 km/h (1 Bft)
03.07.2012 17:00 18,9 C 89 % 1015,0 hPa 0,0 l/m NO 0,08 h 237 W/m 4,1 km/h (1 Bft)
03.07.2012 18:00 20,0 C 82 % 1014,6 hPa 0,0 l/m NO 0,42 h 283 W/m 5,5 km/h (1 Bft)
03.07.2012 19:00 19,5 C 84 % 1014,7 hPa 0,0 l/m NO 0,17 h 86 W/m 5,2 km/h (1 Bft)
03.07.2012 20:00 18,7 C 90 % 1014,8 hPa 0,0 l/m NO 0,00 h 30 W/m 2,7 km/h (1 Bft)
03.07.2012 21:00 17,9 C 94 % 1015,2 hPa 0,0 l/m NO 0,00 h 7 W/m 1,6 km/h (1 Bft)
03.07.2012 22:00 17,6 C 93 % 1015,3 hPa 0,0 l/m N 0,00 h 0 W/m 3,2 km/h (1 Bft)
03.07.2012 23:00 16,8 C 94 % 1015,3 hPa 0,0 l/m N 0,00 h 0 W/m 2,5 km/h (1 Bft)
04.07.2012 00:00 15,7 C 97 % 1015,1 hPa 0,0 l/m NO 0,00 h 0 W/m 2,0 km/h (1 Bft)
04.07.2012 01:00 15,2 C 98 % 1014,9 hPa 0,0 l/m N 0,00 h 0 W/m 1,5 km/h (1 Bft)
04.07.2012 02:00 15,6 C 98 % 1014,3 hPa 0,0 l/m N 0,00 h 0 W/m 0,7 km/h (0 Bft)
04.07.2012 03:00 15,0 C 98 % 1013,8 hPa 0,0 l/m N 0,00 h 0 W/m 1,1 km/h (0 Bft)
04.07.2012 04:00 14,4 C 99 % 1013,4 hPa 0,0 l/m N 0,00 h 0 W/m 0,8 km/h (0 Bft)
04.07.2012 05:00 14,0 C 99 % 1013,4 hPa 0,0 l/m N 0,00 h 8 W/m 1,2 km/h (1 Bft)
04.07.2012 06:00 14,0 C 99 % 1013,3 hPa 0,0 l/m N 0,00 h 39 W/m 2,4 km/h (1 Bft)
04.07.2012 07:00 15,0 C 99 % 1013,0 hPa 0,0 l/m NO 0,33 h 145 W/m 2,0 km/h (1 Bft)
04.07.2012 08:00 17,4 C 94 % 1013,0 hPa 0,0 l/m NO 1,00 h 325 W/m 4,1 km/h (1 Bft)
04.07.2012 09:00 19,4 C 85 % 1012,7 hPa 0,0 l/m O-SO 0,50 h 313 W/m 7,1 km/h (2 Bft)
04.07.2012 10:00 21,0 C 78 % 1012,3 hPa 0,0 l/m O-SO 0,42 h 444 W/m 9,5 km/h (2 Bft)
04.07.2012 11:00 21,6 C 75 % 1012,0 hPa 0,0 l/m O-SO 0,08 h 343 W/m 13,0 km/h (3 Bft)
04.07.2012 12:00 22,3 C 72 % 1011,8 hPa 0,0 l/m O-NO 0,42 h 448 W/m 12,1 km/h (2 Bft)
04.07.2012 13:00 23,4 C 67 % 1011,4 hPa 0,0 l/m O 0,58 h 633 W/m 11,7 km/h (2 Bft)
04.07.2012 14:00 24,7 C 62 % 1010,8 hPa 0,0 l/m O-SO 0,75 h 727 W/m 11,1 km/h (2 Bft)
04.07.2012 15:00 25,1 C 61 % 1010,3 hPa 0,0 l/m NO 0,83 h 741 W/m 11,4 km/h (2 Bft)
04.07.2012 16:00 25,9 C 57 % 1009,6 hPa 0,0 l/m O 0,83 h 636 W/m 12,4 km/h (3 Bft)
04.07.2012 17:00 25,4 C 58 % 1009,3 hPa 0,0 l/m O-NO 0,50 h 352 W/m 9,0 km/h (2 Bft)
04.07.2012 18:00 24,4 C 63 % 1009,0 hPa 0,0 l/m O-NO 0,00 h 119 W/m 8,3 km/h (2 Bft)
04.07.2012 19:00 23,1 C 73 % 1009,0 hPa 0,0 l/m O-NO 0,00 h 26 W/m 3,4 km/h (1 Bft)
04.07.2012 20:00 20,4 C 85 % 1009,6 hPa 0,0 l/m SW 0,00 h 6 W/m 11,4 km/h (2 Bft)
04.07.2012 21:00 18,1 C 94 % 1010,4 hPa 3,6 l/m W 0,00 h 0 W/m 8,4 km/h (2 Bft)
04.07.2012 22:00 17,6 C 94 % 1010,7 hPa 0,2 l/m W 0,00 h 0 W/m 12,1 km/h (2 Bft)
04.07.2012 23:00 17,1 C 96 % 1010,5 hPa 0,0 l/m S-SW 0,00 h 0 W/m 8,7 km/h (2 Bft)
05.07.2012 00:00 16,7 C 97 % 1010,3 hPa 0,0 l/m S-SW 0,00 h 0 W/m 5,9 km/h (2 Bft)
05.07.2012 01:00 16,5 C 98 % 1010,1 hPa 0,0 l/m N 0,00 h 0 W/m 2,8 km/h (1 Bft)
05.07.2012 02:00 16,0 C 98 % 1009,8 hPa 0,0 l/m S-SW 0,00 h 0 W/m 2,0 km/h (1 Bft)
05.07.2012 03:00 15,5 C 98 % 1009,3 hPa 0,0 l/m N 0,00 h 0 W/m 0,1 km/h (0 Bft)
05.07.2012 04:00 15,3 C 99 % 1009,0 hPa 0,2 l/m N 0,00 h 0 W/m 1,1 km/h (0 Bft)
05.07.2012 05:00 14,9 C 99 % 1009,0 hPa 0,0 l/m N 0,00 h 11 W/m 1,5 km/h (1 Bft)
05.07.2012 06:00 14,7 C 99 % 1009,2 hPa 0,0 l/m N 0,00 h 28 W/m 0,9 km/h (0 Bft)
05.07.2012 07:00 15,2 C 100 % 1009,2 hPa 0,0 l/m S 0,17 h 103 W/m 1,9 km/h (1 Bft)
05.07.2012 08:00 16,7 C 98 % 1009,2 hPa 0,0 l/m W-SW 0,58 h 293 W/m 6,5 km/h (2 Bft)
05.07.2012 09:00 18,6 C 91 % 1009,1 hPa 0,0 l/m W-SW 0,92 h 472 W/m 7,9 km/h (2 Bft)
05.07.2012 10:00 20,3 C 85 % 1008,9 hPa 0,0 l/m S-SW 0,92 h 670 W/m 8,0 km/h (2 Bft)
05.07.2012 11:00 22,0 C 80 % 1009,1 hPa 0,0 l/m S-SO 1,00 h 783 W/m 7,8 km/h (2 Bft)
05.07.2012 12:00 23,7 C 71 % 1008,7 hPa 0,0 l/m O-SO 1,00 h 871 W/m 7,2 km/h (2 Bft)
05.07.2012 13:00 25,0 C 64 % 1008,2 hPa 0,0 l/m O-NO 1,00 h 899 W/m 8,2 km/h (2 Bft)
05.07.2012 14:00 26,1 C 55 % 1007,6 hPa 0,0 l/m W-SW 1,00 h 890 W/m 7,8 km/h (2 Bft)
05.07.2012 15:00 27,2 C 49 % 1007,1 hPa 0,0 l/m O 1,00 h 817 W/m 8,2 km/h (2 Bft)
05.07.2012 16:00 27,3 C 47 % 1006,8 hPa 0,0 l/m NW 1,00 h 656 W/m 6,1 km/h (2 Bft)
05.07.2012 17:00 26,7 C 51 % 1006,6 hPa 0,0 l/m NW 0,67 h 350 W/m 5,1 km/h (1 Bft)
05.07.2012 18:00 25,3 C 62 % 1006,6 hPa 0,0 l/m NW 0,00 h 134 W/m 2,4 km/h (1 Bft)
05.07.2012 19:00 22,8 C 69 % 1006,9 hPa 0,2 l/m N-NW 0,00 h 31 W/m 11,5 km/h (2 Bft)
05.07.2012 20:00 19,1 C 86 % 1007,1 hPa 1,6 l/m NW 0,00 h 6 W/m 11,4 km/h (2 Bft)
05.07.2012 21:00 17,9 C 91 % 1008,0 hPa 0,0 l/m SO 0,00 h 0 W/m 7,2 km/h (2 Bft)
05.07.2012 22:00 17,5 C 94 % 1008,1 hPa 0,0 l/m N 0,00 h 0 W/m 3,2 km/h (1 Bft)
05.07.2012 23:00 16,8 C 95 % 1007,7 hPa 0,0 l/m N 0,00 h 0 W/m 1,5 km/h (1 Bft)
06.07.2012 00:00 16,3 C 97 % 1007,7 hPa 0,0 l/m N-NW 0,00 h 0 W/m 5,2 km/h (1 Bft)
06.07.2012 01:00 16,2 C 97 % 1007,8 hPa 0,0 l/m N-NW 0,00 h 0 W/m 7,2 km/h (2 Bft)
06.07.2012 02:00 15,7 C 97 % 1007,8 hPa 0,0 l/m N-NW 0,00 h 0 W/m 4,9 km/h (1 Bft)
06.07.2012 03:00 15,7 C 98 % 1008,2 hPa 0,2 l/m N-NW 0,00 h 0 W/m 4,4 km/h (1 Bft)
06.07.2012 04:00 15,6 C 97 % 1007,9 hPa 0,4 l/m N-NO 0,00 h 0 W/m 5,3 km/h (1 Bft)
06.07.2012 05:00 15,8 C 98 % 1009,2 hPa 0,6 l/m W-SW 0,00 h 9 W/m 12,3 km/h (3 Bft)
06.07.2012 06:00 15,9 C 97 % 1009,0 hPa 0,2 l/m NW 0,00 h 29 W/m 14,7 km/h (3 Bft)
06.07.2012 07:00 15,7 C 93 % 1009,5 hPa 0,0 l/m W-NW 0,08 h 109 W/m 9,9 km/h (2 Bft)
06.07.2012 08:00 16,4 C 91 % 1009,9 hPa 0,0 l/m NW 0,17 h 188 W/m 2,5 km/h (1 Bft)
06.07.2012 09:00 17,3 C 90 % 1010,4 hPa 0,0 l/m SW 0,00 h 148 W/m 11,4 km/h (2 Bft)
06.07.2012 10:00 17,8 C 88 % 1010,5 hPa 0,0 l/m SW 0,00 h 231 W/m 10,2 km/h (2 Bft)
06.07.2012 11:00 18,5 C 82 % 1010,8 hPa 0,0 l/m W-NW 0,17 h 367 W/m 11,4 km/h (2 Bft)
06.07.2012 12:00 20,1 C 73 % 1010,8 hPa 0,0 l/m W 0,58 h 586 W/m 10,6 km/h (2 Bft)
06.07.2012 13:00 21,5 C 66 % 1010,6 hPa 0,0 l/m W-SW 0,42 h 496 W/m 12,1 km/h (2 Bft)
06.07.2012 14:00 21,6 C 62 % 1010,6 hPa 0,0 l/m W-SW 0,50 h 518 W/m 8,6 km/h (2 Bft)
06.07.2012 15:00 21,5 C 62 % 1010,6 hPa 0,0 l/m W-SW 0,08 h 269 W/m 6,9 km/h (2 Bft)
06.07.2012 16:00 21,5 C 69 % 1010,6 hPa 0,0 l/m W-SW 0,00 h 201 W/m 8,8 km/h (2 Bft)
06.07.2012 17:00 20,8 C 76 % 1010,7 hPa 0,0 l/m SW 0,00 h 115 W/m 11,4 km/h (2 Bft)
06.07.2012 18:00 19,6 C 86 % 1010,7 hPa 0,2 l/m SW 0,17 h 164 W/m 6,5 km/h (2 Bft)
06.07.2012 19:00 19,6 C 84 % 1010,8 hPa 0,0 l/m W-SW 0,00 h 73 W/m 4,4 km/h (1 Bft)
06.07.2012 20:00 18,9 C 82 % 1010,9 hPa 0,0 l/m W-NW 0,00 h 16 W/m 5,6 km/h (1 Bft)
06.07.2012 21:00 18,1 C 84 % 1011,1 hPa 0,0 l/m W-NW 0,00 h 6 W/m 1,9 km/h (1 Bft)
06.07.2012 22:00 17,1 C 89 % 1011,2 hPa 0,0 l/m N 0,00 h 0 W/m 0,5 km/h (0 Bft)
06.07.2012 23:00 16,6 C 90 % 1011,6 hPa 0,0 l/m W-NW 0,00 h 0 W/m 2,7 km/h (1 Bft)
07.07.2012 00:00 16,5 C 87 % 1012,3 hPa 1,0 l/m W-NW 0,00 h 0 W/m 6,4 km/h (2 Bft)
07.07.2012 01:00 15,4 C 94 % 1012,5 hPa 1,0 l/m W-NW 0,00 h 0 W/m 14,6 km/h (3 Bft)
07.07.2012 02:00 14,9 C 96 % 1012,6 hPa 2,4 l/m W-NW 0,00 h 0 W/m 10,3 km/h (2 Bft)
07.07.2012 03:00 14,7 C 97 % 1012,3 hPa 0,8 l/m W-NW 0,00 h 0 W/m 1,5 km/h (1 Bft)
07.07.2012 04:00 14,7 C 98 % 1012,5 hPa 0,2 l/m W-NW 0,00 h 0 W/m 4,9 km/h (1 Bft)
07.07.2012 05:00 14,6 C 98 % 1012,4 hPa 0,2 l/m N 0,00 h 0 W/m 2,5 km/h (1 Bft)
07.07.2012 06:00 14,7 C 98 % 1012,4 hPa 0,0 l/m N 0,00 h 23 W/m 1,5 km/h (1 Bft)
07.07.2012 07:00 15,1 C 99 % 1012,5 hPa 0,0 l/m W-NW 0,00 h 65 W/m 2,9 km/h (1 Bft)
07.07.2012 08:00 15,7 C 97 % 1012,6 hPa 0,0 l/m W-NW 0,00 h 114 W/m 4,7 km/h (1 Bft)
07.07.2012 09:00 16,3 C 94 % 1012,8 hPa 0,0 l/m W 0,00 h 122 W/m 5,6 km/h (1 Bft)
07.07.2012 10:00 16,9 C 91 % 1012,8 hPa 0,0 l/m S 0,00 h 166 W/m 4,4 km/h (1 Bft)
07.07.2012 11:00 18,5 C 85 % 1012,9 hPa 0,0 l/m S 0,42 h 581 W/m 9,0 km/h (2 Bft)
07.07.2012 12:00 20,5 C 75 % 1012,6 hPa 0,0 l/m SO 1,00 h 912 W/m 11,6 km/h (2 Bft)
07.07.2012 13:00 22,0 C 67 % 1012,4 hPa 0,0 l/m SW 0,92 h 887 W/m 11,5 km/h (2 Bft)
07.07.2012 14:00 23,1 C 62 % 1012,0 hPa 0,0 l/m SW 1,00 h 904 W/m 12,1 km/h (2 Bft)
07.07.2012 15:00 24,0 C 56 % 1011,7 hPa 0,0 l/m SW 1,00 h 854 W/m 12,5 km/h (3 Bft)
07.07.2012 16:00 24,3 C 52 % 1011,4 hPa 0,0 l/m SW 0,67 h 605 W/m 8,9 km/h (2 Bft)
07.07.2012 17:00 24,5 C 50 % 1011,0 hPa 0,0 l/m W-SW 1,00 h 604 W/m 7,5 km/h (2 Bft)
07.07.2012 18:00 24,4 C 50 % 1010,6 hPa 0,0 l/m W-SW 1,00 h 417 W/m 8,1 km/h (2 Bft)
07.07.2012 19:00 23,3 C 56 % 1010,5 hPa 0,0 l/m SW 1,00 h 248 W/m 6,3 km/h (2 Bft)
07.07.2012 20:00 20,8 C 71 % 1010,3 hPa 0,0 l/m N 0,33 h 53 W/m 0,7 km/h (0 Bft)
07.07.2012 21:00 18,0 C 81 % 1010,3 hPa 0,0 l/m N 0,00 h 8 W/m 0,0 km/h (0 Bft)
07.07.2012 22:00 16,6 C 83 % 1010,4 hPa 0,0 l/m N 0,00 h 0 W/m 0,7 km/h (0 Bft)
07.07.2012 23:00 15,8 C 88 % 1010,0 hPa 0,0 l/m N 0,00 h 0 W/m 0,0 km/h (0 Bft)
08.07.2012 00:00 15,8 C 88 % 1009,6 hPa 0,0 l/m N 0,00 h 0 W/m 1,2 km/h (1 Bft)
08.07.2012 01:00 15,8 C 87 % 1009,2 hPa 0,0 l/m W 0,00 h 0 W/m 2,8 km/h (1 Bft)
08.07.2012 02:00 15,3 C 88 % 1008,7 hPa 0,0 l/m N 0,00 h 0 W/m 2,4 km/h (1 Bft)
08.07.2012 03:00 14,5 C 91 % 1008,0 hPa 0,0 l/m NW 0,00 h 0 W/m 3,9 km/h (1 Bft)
08.07.2012 04:00 14,6 C 93 % 1007,4 hPa 0,0 l/m N-NW 0,00 h 0 W/m 6,2 km/h (2 Bft)
08.07.2012 05:00 14,3 C 94 % 1006,8 hPa 0,0 l/m N-NW 0,17 h 11 W/m 2,9 km/h (1 Bft)
08.07.2012 06:00 14,8 C 92 % 1006,2 hPa 0,0 l/m N 0,00 h 38 W/m 2,1 km/h (1 Bft)
08.07.2012 07:00 16,2 C 88 % 1006,0 hPa 0,0 l/m N 0,67 h 200 W/m 1,7 km/h (1 Bft)
08.07.2012 08:00 17,4 C 86 % 1006,8 hPa 0,0 l/m W 0,00 h 111 W/m 10,2 km/h (2 Bft)
08.07.2012 09:00 17,3 C 84 % 1009,6 hPa 0,0 l/m W-NW 0,00 h 147 W/m 25,9 km/h (4 Bft)
08.07.2012 10:00 18,0 C 77 % 1010,3 hPa 0,0 l/m W 0,08 h 279 W/m 18,6 km/h (3 Bft)
08.07.2012 11:00 20,0 C 70 % 1009,9 hPa 0,0 l/m SW 0,83 h 727 W/m 18,2 km/h (3 Bft)
08.07.2012 12:00 21,8 C 66 % 1009,9 hPa 0,0 l/m SW 1,00 h 886 W/m 22,7 km/h (4 Bft)
08.07.2012 13:00 23,0 C 62 % 1009,6 hPa 0,0 l/m W 1,00 h 974 W/m 23,9 km/h (4 Bft)
08.07.2012 14:00 23,7 C 62 % 1009,4 hPa 0,0 l/m W 0,92 h 856 W/m 21,7 km/h (4 Bft)
08.07.2012 15:00 24,1 C 59 % 1009,4 hPa 0,0 l/m W 0,92 h 815 W/m 25,1 km/h (4 Bft)
08.07.2012 16:00 22,9 C 61 % 1009,2 hPa 0,0 l/m W-SW 0,08 h 281 W/m 24,5 km/h (4 Bft)
08.07.2012 17:00 22,4 C 65 % 1009,2 hPa 0,0 l/m W 0,08 h 188 W/m 15,8 km/h (3 Bft)
08.07.2012 18:00 22,5 C 62 % 1009,2 hPa 0,0 l/m W 0,17 h 200 W/m 18,0 km/h (3 Bft)
08.07.2012 19:00 22,2 C 64 % 1009,1 hPa 0,0 l/m W-NW 0,58 h 182 W/m 10,6 km/h (2 Bft)
08.07.2012 20:00 21,7 C 66 % 1009,6 hPa 0,0 l/m W-SW 0,50 h 74 W/m 6,2 km/h (2 Bft)
08.07.2012 21:00 20,3 C 72 % 1010,7 hPa 0,0 l/m N 0,08 h 9 W/m 2,7 km/h (1 Bft)
08.07.2012 22:00 18,9 C 78 % 1011,3 hPa 0,0 l/m W-NW 0,00 h 0 W/m 3,5 km/h (1 Bft)
08.07.2012 23:00 19,0 C 71 % 1011,7 hPa 0,0 l/m W-NW 0,00 h 0 W/m 8,3 km/h (2 Bft)
Min-Datum _ 02.07.12 05.07.12 08.07.12 - - - - 02.07.12
_ Min-Zeit 01:25 16:00 07:40 - - - - 00:05
Minimum _ 13,3 C 45 % 1005,8 hPa - - - - 0,0 km/h (0 Bft)
Max-Datum _ 05.07.12 04.07.12 02.07.12 04.07.12 - 02.07.12 06.07.12 08.07.12
_ Max-Zeit 16:40 06:55 00:00 21:25 - 07:45 13:00 09:55
Maximum _ 28,1 C 100 % 1018,1 hPa 3,6 l/m - 0,08 h 1046 W/m 40,2 km/h
W-NW (6 Bft)
Durchschnitt _ 18,3 C 85 % 1011,7 hPa #19,2 l/m NO #34:15 h 275 W/m 7,2 km/h (2 Bft)